createdAt,value
2024-01-30T00:00:35.482Z,33.47
2024-01-30T00:03:02.537Z,32.53
2024-01-30T00:05:29.462Z,32.08
2024-01-30T00:07:56.403Z,33.17
2024-01-30T00:10:23.548Z,33.40
2024-01-30T00:12:50.522Z,33.35
2024-01-30T00:15:17.484Z,33.70
2024-01-30T00:17:44.478Z,32.53
2024-01-30T00:20:12.003Z,32.20
2024-01-30T00:22:38.970Z,32.90
2024-01-30T00:25:06.621Z,34.05
2024-01-30T00:27:33.432Z,35.10
2024-01-30T00:30:00.302Z,34.20
2024-01-30T00:32:27.269Z,33.75
2024-01-30T00:34:54.339Z,32.50
2024-01-30T00:37:21.373Z,31.58
2024-01-30T00:39:48.286Z,31.63
2024-01-30T00:42:15.166Z,32.10
2024-01-30T00:44:42.153Z,32.03
2024-01-30T00:47:08.969Z,30.73
2024-01-30T00:49:36.143Z,31.27
2024-01-30T00:52:03.236Z,28.63
2024-01-30T00:54:30.347Z,31.20
2024-01-30T00:56:57.976Z,32.03
2024-01-30T00:59:24.829Z,29.95
2024-01-30T01:01:51.737Z,30.15
2024-01-30T01:04:19.504Z,32.03
2024-01-30T01:06:46.449Z,32.35
2024-01-30T01:09:13.520Z,30.27
2024-01-30T01:11:40.763Z,31.33
2024-01-30T01:14:07.664Z,31.27
2024-01-30T01:16:35.557Z,30.92
2024-01-30T01:19:02.883Z,31.23
2024-01-30T01:21:29.842Z,31.98
2024-01-30T01:23:56.727Z,32.38
2024-01-30T01:26:24.454Z,30.75
2024-01-30T01:28:51.360Z,29.75
2024-01-30T01:31:18.933Z,30.10
2024-01-30T01:33:46.422Z,30.20
2024-01-30T01:36:15.233Z,32.35
2024-01-30T01:38:42.178Z,31.45
2024-01-30T01:41:09.017Z,32.05
2024-01-30T01:43:35.927Z,30.30
2024-01-30T01:46:03.310Z,30.42
2024-01-30T01:48:30.723Z,30.75
2024-01-30T01:50:58.789Z,30.10
2024-01-30T01:53:26.671Z,31.27
2024-01-30T01:55:54.276Z,29.70
2024-01-30T01:58:23.273Z,30.63
2024-01-30T02:00:52.300Z,30.33
2024-01-30T02:03:22.707Z,31.55
2024-01-30T02:05:51.527Z,30.48
2024-01-30T02:08:19.007Z,31.88
2024-01-30T02:10:46.433Z,32.90
2024-01-30T02:13:13.354Z,32.30
2024-01-30T02:15:40.251Z,34.28
2024-01-30T02:18:07.230Z,32.95
2024-01-30T02:20:36.523Z,33.05
2024-01-30T02:23:04.002Z,32.60
2024-01-30T02:25:47.696Z,32.70
2024-01-30T02:28:15.312Z,31.23
2024-01-30T02:30:44.434Z,31.55
2024-01-30T02:33:11.381Z,31.95
2024-01-30T02:35:38.236Z,30.48
2024-01-30T02:38:05.377Z,30.15
2024-01-30T02:40:32.866Z,29.17
2024-01-30T02:43:01.260Z,29.85
2024-01-30T02:45:28.165Z,29.88
2024-01-30T02:47:55.078Z,28.17
2024-01-30T02:50:22.081Z,29.98
2024-01-30T02:52:49.069Z,29.35
2024-01-30T02:55:18.579Z,29.77
2024-01-30T02:57:45.699Z,28.60
2024-01-30T03:00:13.419Z,29.30
2024-01-30T03:02:41.060Z,28.33
2024-01-30T03:05:09.302Z,29.80
2024-01-30T03:07:36.283Z,29.15
2024-01-30T03:10:03.731Z,28.42
2024-01-30T03:12:30.689Z,27.67
2024-01-30T03:14:57.523Z,29.23
2024-01-30T03:17:25.282Z,28.40
2024-01-30T03:19:52.478Z,28.98
2024-01-30T03:22:19.558Z,28.50
2024-01-30T03:24:46.469Z,28.13
2024-01-30T03:27:13.399Z,28.60
2024-01-30T03:29:40.233Z,27.17
2024-01-30T03:32:07.089Z,26.30
2024-01-30T03:34:34.117Z,26.27
2024-01-30T03:37:01.049Z,26.88
2024-01-30T03:39:27.929Z,27.67
2024-01-30T03:41:54.807Z,28.25
2024-01-30T03:44:21.604Z,27.48
2024-01-30T03:46:48.480Z,26.67
2024-01-30T03:49:15.338Z,26.70
2024-01-30T03:51:42.242Z,28.83
2024-01-30T03:54:09.285Z,28.52
2024-01-30T03:56:36.103Z,28.58
2024-01-30T03:59:03.905Z,29.27
2024-01-30T04:01:30.906Z,30.15
2024-01-30T04:03:57.896Z,30.75
2024-01-30T04:06:24.992Z,27.98
2024-01-30T04:08:51.830Z,28.02
2024-01-30T04:11:20.942Z,26.50
2024-01-30T04:13:49.612Z,26.30
2024-01-30T04:16:24.219Z,24.92
2024-01-30T04:18:52.880Z,25.77
2024-01-30T04:21:21.796Z,26.52
2024-01-30T04:23:49.321Z,27.00
2024-01-30T04:26:16.261Z,24.65
2024-01-30T04:28:44.021Z,26.10
2024-01-30T04:31:10.943Z,26.67
2024-01-30T04:33:38.036Z,25.70
2024-01-30T04:36:06.243Z,26.58
2024-01-30T04:38:33.331Z,25.65
2024-01-30T04:41:00.187Z,25.23
2024-01-30T04:43:27.616Z,25.75
2024-01-30T04:45:54.581Z,25.23
2024-01-30T04:48:21.491Z,26.98
2024-01-30T04:50:48.454Z,25.48
2024-01-30T04:53:15.259Z,26.17
2024-01-30T04:55:42.114Z,25.52
2024-01-30T04:58:09.087Z,25.10
2024-01-30T05:00:36.347Z,29.35
2024-01-30T05:03:03.333Z,31.65
2024-01-30T05:05:30.231Z,32.20
2024-01-30T05:07:57.061Z,34.45
2024-01-30T05:10:23.861Z,36.55
2024-01-30T05:12:50.843Z,34.25
2024-01-30T05:15:17.685Z,36.28
2024-01-30T05:17:44.838Z,30.83
2024-01-30T05:20:13.565Z,29.75
2024-01-30T05:22:45.879Z,28.58
2024-01-30T05:25:14.366Z,28.85
2024-01-30T05:27:41.376Z,26.15
2024-01-30T05:30:08.987Z,26.67
2024-01-30T05:32:36.037Z,26.20
2024-01-30T05:35:03.306Z,25.88
2024-01-30T05:37:30.176Z,26.08
2024-01-30T05:39:57.098Z,26.33
2024-01-30T05:42:24.559Z,26.52
2024-01-30T05:44:51.665Z,28.08
2024-01-30T05:47:18.511Z,27.25
2024-01-30T05:49:45.453Z,27.75
2024-01-30T05:52:12.401Z,28.55
2024-01-30T05:54:39.322Z,28.10
2024-01-30T05:57:06.526Z,27.45
2024-01-30T05:59:33.518Z,28.42
2024-01-30T06:02:00.576Z,29.00
2024-01-30T06:04:27.718Z,27.27
2024-01-30T06:06:54.681Z,28.80
2024-01-30T06:09:21.599Z,28.13
2024-01-30T06:11:48.453Z,27.85
2024-01-30T06:14:15.272Z,27.48
2024-01-30T06:16:42.157Z,27.75
2024-01-30T06:19:09.172Z,28.05
2024-01-30T06:21:37.820Z,28.63
2024-01-30T06:24:05.313Z,27.20
2024-01-30T06:26:32.198Z,29.52
2024-01-30T06:28:59.106Z,27.60
2024-01-30T06:31:26.122Z,29.60
2024-01-30T06:33:53.194Z,27.55
2024-01-30T06:36:20.150Z,27.67
2024-01-30T06:38:47.017Z,27.77
2024-01-30T06:41:13.978Z,27.20
2024-01-30T06:43:40.876Z,26.60
2024-01-30T06:46:07.805Z,27.50
2024-01-30T06:48:34.642Z,28.58
2024-01-30T06:51:01.579Z,28.20
2024-01-30T06:53:28.459Z,27.23
2024-01-30T06:55:55.313Z,28.40
2024-01-30T06:58:22.322Z,27.58
2024-01-30T07:00:49.341Z,33.05
2024-01-30T07:03:16.242Z,36.88
2024-01-30T07:05:43.817Z,44.28
2024-01-30T07:08:10.662Z,46.58
2024-01-30T07:10:37.741Z,36.33
2024-01-30T07:13:06.472Z,32.28
2024-01-30T07:15:33.370Z,31.40
2024-01-30T07:18:00.443Z,29.73
2024-01-30T07:20:27.398Z,30.58
2024-01-30T07:22:54.395Z,31.60
2024-01-30T07:25:22.822Z,30.65
2024-01-30T07:27:49.732Z,33.40
2024-01-30T07:30:18.416Z,31.67
2024-01-30T07:32:45.329Z,34.10
2024-01-30T07:35:12.665Z,31.75
2024-01-30T07:37:39.662Z,31.38
2024-01-30T07:40:07.862Z,27.85
2024-01-30T07:42:34.780Z,27.85
2024-01-30T07:45:02.217Z,28.73
2024-01-30T07:47:29.132Z,27.90
2024-01-30T07:49:56.122Z,27.65
2024-01-30T07:52:23.324Z,29.17
2024-01-30T07:54:53.821Z,28.38
2024-01-30T07:57:20.687Z,27.63
2024-01-30T07:59:47.545Z,26.80
2024-01-30T08:02:14.658Z,27.70
2024-01-30T08:04:41.886Z,26.45
2024-01-30T08:07:09.039Z,25.95
2024-01-30T08:09:36.009Z,26.50
2024-01-30T08:12:02.937Z,27.35
2024-01-30T08:14:29.904Z,28.73
2024-01-30T08:16:56.740Z,26.85
2024-01-30T08:19:23.830Z,27.38
2024-01-30T08:21:50.811Z,27.42
2024-01-30T08:24:17.666Z,27.70
2024-01-30T08:26:44.509Z,28.45
2024-01-30T08:29:11.684Z,26.25
2024-01-30T08:31:38.713Z,27.77
2024-01-30T08:34:05.796Z,27.65
2024-01-30T08:36:32.856Z,25.38
2024-01-30T08:39:02.178Z,25.83
2024-01-30T08:41:31.080Z,26.38
2024-01-30T08:43:58.078Z,26.55
2024-01-30T08:46:24.959Z,27.88
2024-01-30T08:48:52.322Z,26.80
2024-01-30T08:51:19.259Z,25.13
2024-01-30T08:53:46.133Z,26.80
2024-01-30T08:56:13.153Z,26.33
2024-01-30T08:58:40.170Z,25.25
2024-01-30T09:01:07.321Z,25.85
2024-01-30T09:03:34.971Z,28.90
2024-01-30T09:06:01.813Z,28.92
2024-01-30T09:08:29.010Z,29.25
2024-01-30T09:10:56.111Z,28.70
2024-01-30T09:13:23.183Z,28.92
2024-01-30T09:15:50.158Z,27.33
2024-01-30T09:18:17.095Z,28.75
2024-01-30T09:20:44.107Z,29.73
2024-01-30T09:23:11.816Z,29.45
2024-01-30T09:25:38.765Z,28.25
2024-01-30T09:28:07.137Z,28.13
2024-01-30T09:30:34.057Z,28.45
2024-01-30T09:33:01.006Z,27.55
2024-01-30T09:35:28.012Z,27.23
2024-01-30T09:37:54.900Z,27.52
2024-01-30T09:40:21.930Z,26.45
2024-01-30T09:42:51.658Z,26.63
2024-01-30T09:45:27.567Z,25.58
2024-01-30T09:47:54.933Z,26.23
2024-01-30T09:50:21.916Z,25.50
2024-01-30T09:52:49.248Z,26.23
2024-01-30T09:55:16.337Z,26.70
2024-01-30T09:57:43.746Z,26.80
2024-01-30T10:00:11.802Z,27.58
2024-01-30T10:02:39.690Z,26.17
2024-01-30T10:05:07.198Z,27.20
2024-01-30T10:07:34.305Z,27.23
2024-01-30T10:10:01.652Z,26.00
2024-01-30T10:12:30.778Z,23.50
2024-01-30T10:14:59.102Z,26.83
2024-01-30T10:17:32.795Z,24.92
2024-01-30T10:20:02.393Z,26.20
2024-01-30T10:22:29.929Z,25.63
2024-01-30T10:24:57.160Z,26.42
2024-01-30T10:27:28.413Z,26.45
2024-01-30T10:29:55.315Z,26.02
2024-01-30T10:32:22.632Z,26.23
2024-01-30T10:34:49.621Z,25.27
2024-01-30T10:37:17.817Z,25.33
2024-01-30T10:39:47.223Z,25.73
2024-01-30T10:42:18.431Z,24.10
2024-01-30T10:44:57.295Z,26.30
2024-01-30T10:47:29.473Z,25.98
2024-01-30T10:49:58.336Z,20.48
2024-01-30T10:52:27.357Z,24.67
2024-01-30T10:54:56.312Z,25.10
2024-01-30T10:57:29.435Z,24.27
2024-01-30T11:00:01.922Z,22.10
2024-01-30T11:02:29.438Z,22.73
2024-01-30T11:04:59.882Z,23.35
2024-01-30T11:07:29.807Z,20.90
2024-01-30T11:09:59.950Z,21.30
2024-01-30T11:12:28.134Z,22.23
2024-01-30T11:15:10.027Z,22.63
2024-01-30T11:17:51.476Z,21.33
2024-01-30T11:20:22.945Z,21.83
2024-01-30T11:22:55.569Z,23.33
2024-01-30T11:25:24.087Z,22.65
2024-01-30T11:27:54.544Z,21.98
2024-01-30T11:30:33.522Z,21.67
2024-01-30T11:33:12.621Z,21.77
2024-01-30T11:35:44.860Z,22.17
2024-01-30T11:38:15.272Z,21.85
2024-01-30T11:40:42.605Z,21.23
2024-01-30T11:43:10.764Z,22.13
2024-01-30T11:45:38.718Z,22.20
2024-01-30T11:48:08.894Z,21.02
2024-01-30T11:50:36.582Z,20.35
2024-01-30T11:53:04.331Z,21.25
2024-01-30T11:55:34.542Z,21.02
2024-01-30T11:58:02.924Z,20.52
2024-01-30T12:00:32.153Z,20.45
2024-01-30T12:03:01.624Z,20.00
2024-01-30T12:05:29.875Z,20.50
2024-01-30T12:08:00.392Z,20.25
2024-01-30T12:10:28.547Z,19.80
2024-01-30T12:12:55.983Z,21.20
2024-01-30T12:15:24.155Z,21.10
2024-01-30T12:17:51.374Z,20.88
2024-01-30T12:20:22.982Z,20.60
2024-01-30T12:22:51.347Z,19.50
2024-01-30T12:25:21.944Z,20.50
2024-01-30T12:27:52.216Z,19.27
2024-01-30T12:30:21.450Z,18.52
2024-01-30T12:32:51.727Z,19.10
2024-01-30T12:35:21.238Z,18.02
2024-01-30T12:37:50.623Z,16.63
2024-01-30T12:40:18.798Z,16.27
2024-01-30T12:42:51.205Z,19.70
2024-01-30T12:45:22.797Z,16.92
2024-01-30T12:47:50.099Z,15.20
2024-01-30T12:50:18.305Z,15.52
2024-01-30T12:52:48.999Z,16.00
2024-01-30T12:55:17.294Z,15.30
2024-01-30T12:57:44.296Z,15.65
2024-01-30T13:00:11.814Z,16.17
2024-01-30T13:02:39.151Z,14.95
2024-01-30T13:05:06.894Z,15.88
2024-01-30T13:07:34.812Z,14.80
2024-01-30T13:10:04.241Z,15.98
2024-01-30T13:12:33.495Z,15.63
2024-01-30T13:15:02.243Z,15.63
2024-01-30T13:17:29.600Z,15.95
2024-01-30T13:19:59.830Z,13.77
2024-01-30T13:24:56.651Z,14.57
2024-01-30T13:27:23.794Z,16.63
2024-01-30T13:29:50.691Z,15.02
2024-01-30T13:32:17.563Z,14.07
2024-01-30T13:34:44.664Z,14.10
2024-01-30T13:37:11.826Z,16.77
2024-01-30T13:39:40.327Z,17.35
2024-01-30T13:42:07.228Z,16.42
2024-01-30T13:44:36.377Z,15.50
2024-01-30T13:47:04.258Z,14.75
2024-01-30T13:49:31.295Z,15.25
2024-01-30T13:51:59.430Z,17.58
2024-01-30T13:54:26.329Z,18.52
2024-01-30T13:56:53.310Z,15.45
2024-01-30T13:59:25.558Z,13.77
2024-01-30T14:01:53.064Z,49.03
2024-01-30T14:04:20.320Z,35.97
2024-01-30T14:06:53.452Z,29.00
2024-01-30T14:09:24.416Z,19.17
2024-01-30T14:11:51.246Z,14.98
2024-01-30T14:14:18.051Z,11.98
2024-01-30T14:16:44.971Z,12.30
2024-01-30T14:19:11.878Z,60.63
2024-01-30T14:21:39.181Z,31.83
2024-01-30T14:24:07.112Z,25.35
2024-01-30T14:26:33.931Z,15.25
2024-01-30T14:29:00.804Z,14.18
2024-01-30T14:31:27.740Z,14.43
2024-01-30T14:33:56.235Z,14.02
2024-01-30T14:36:23.215Z,15.50
2024-01-30T14:38:50.135Z,20.88
2024-01-30T14:41:17.169Z,17.10
2024-01-30T14:43:44.025Z,14.65
2024-01-30T14:46:11.446Z,14.25
2024-01-30T14:48:38.585Z,14.90
2024-01-30T14:51:05.671Z,12.77
2024-01-30T14:53:32.558Z,13.30
2024-01-30T14:55:59.410Z,13.05
2024-01-30T14:58:26.490Z,12.32
2024-01-30T15:00:53.597Z,13.30
2024-01-30T15:03:24.089Z,12.15
2024-01-30T15:05:51.818Z,13.63
2024-01-30T15:08:18.696Z,15.20
2024-01-30T15:10:46.055Z,12.60
2024-01-30T15:13:13.140Z,15.00
2024-01-30T15:15:40.056Z,15.68
2024-01-30T15:18:07.181Z,15.43
2024-01-30T15:20:34.064Z,15.43
2024-01-30T15:23:00.914Z,19.00
2024-01-30T15:25:30.155Z,16.02
2024-01-30T15:27:57.126Z,14.32
2024-01-30T15:30:24.518Z,13.35
2024-01-30T15:32:52.451Z,13.85
2024-01-30T15:35:19.379Z,12.23
2024-01-30T15:37:46.270Z,13.95
2024-01-30T15:40:14.075Z,13.70
2024-01-30T15:42:41.036Z,13.15
2024-01-30T15:45:08.258Z,12.85
2024-01-30T15:47:35.409Z,12.02
2024-01-30T15:50:02.793Z,12.23
2024-01-30T15:52:29.805Z,12.98
2024-01-30T15:54:56.732Z,12.48
2024-01-30T15:57:24.664Z,11.75
2024-01-30T15:59:52.039Z,14.55
2024-01-30T16:02:20.757Z,13.77
2024-01-30T16:04:48.513Z,14.18
2024-01-30T16:07:15.417Z,13.10
2024-01-30T16:09:43.126Z,13.30
2024-01-30T16:12:10.083Z,13.07
2024-01-30T16:14:37.472Z,13.45
2024-01-30T16:17:04.698Z,12.13
2024-01-30T16:19:33.731Z,12.55
2024-01-30T16:22:00.775Z,12.20
2024-01-30T16:24:27.731Z,13.45
2024-01-30T16:26:54.876Z,13.82
2024-01-30T16:29:21.814Z,15.60
2024-01-30T16:31:48.633Z,13.43
2024-01-30T16:34:15.643Z,13.00
2024-01-30T16:36:44.717Z,14.50
2024-01-30T16:39:11.970Z,14.05
2024-01-30T16:41:39.056Z,15.35
2024-01-30T16:44:06.212Z,18.25
2024-01-30T16:46:33.831Z,14.52
2024-01-30T16:49:01.033Z,15.27
2024-01-30T16:51:28.096Z,19.65
2024-01-30T16:53:54.908Z,40.55
2024-01-30T16:56:21.835Z,32.63
2024-01-30T16:58:48.712Z,19.75
2024-01-30T17:01:15.725Z,16.77
2024-01-30T17:03:44.388Z,16.52
2024-01-30T17:06:14.607Z,17.50
2024-01-30T17:08:41.577Z,17.25
2024-01-30T17:11:09.805Z,17.58
2024-01-30T17:13:37.890Z,16.08
2024-01-30T17:16:05.173Z,16.42
2024-01-30T17:18:32.253Z,16.60
2024-01-30T17:20:59.120Z,15.50
2024-01-30T17:23:27.000Z,16.33
2024-01-30T17:25:54.082Z,15.50
2024-01-30T17:28:21.171Z,14.23
2024-01-30T17:30:49.118Z,14.27
2024-01-30T17:33:16.399Z,13.60
2024-01-30T17:35:43.680Z,15.88
2024-01-30T17:38:10.660Z,15.23
2024-01-30T17:40:37.573Z,16.30
2024-01-30T17:43:05.003Z,17.13
2024-01-30T17:45:31.951Z,16.10
2024-01-30T17:47:58.865Z,14.48
2024-01-30T17:50:25.791Z,15.85
2024-01-30T17:52:54.799Z,16.33
2024-01-30T17:55:21.992Z,15.90
2024-01-30T17:57:49.138Z,21.17
2024-01-30T18:00:19.496Z,19.88
2024-01-30T18:02:46.920Z,16.73
2024-01-30T18:05:14.337Z,15.82
2024-01-30T18:07:41.661Z,15.73
2024-01-30T18:10:09.674Z,15.93
2024-01-30T18:12:36.957Z,16.27
2024-01-30T18:15:04.880Z,15.75
2024-01-30T18:17:31.788Z,16.38
2024-01-30T18:19:58.701Z,15.23
2024-01-30T18:22:25.617Z,15.48
2024-01-30T18:24:52.536Z,16.00
2024-01-30T18:27:19.463Z,17.60
2024-01-30T18:29:46.291Z,17.80
2024-01-30T18:32:13.117Z,18.90
2024-01-30T18:34:39.992Z,18.80
2024-01-30T18:37:08.969Z,16.85
2024-01-30T18:39:36.014Z,16.05
2024-01-30T18:42:02.941Z,17.02
2024-01-30T18:44:29.828Z,18.55
2024-01-30T18:46:56.842Z,19.38
2024-01-30T18:49:24.510Z,18.67
2024-01-30T18:51:53.321Z,18.27
2024-01-30T18:54:22.208Z,18.48
2024-01-30T18:56:50.747Z,15.90
2024-01-30T18:59:20.196Z,16.33
2024-01-30T19:01:47.214Z,15.85
2024-01-30T19:04:14.329Z,16.40
2024-01-30T19:06:41.454Z,15.75
2024-01-30T19:09:09.163Z,16.10
2024-01-30T19:11:36.580Z,15.88
2024-01-30T19:14:03.491Z,16.95
2024-01-30T19:16:30.358Z,18.45
2024-01-30T19:18:57.767Z,18.60
2024-01-30T19:21:24.705Z,16.17
2024-01-30T19:23:54.340Z,18.35
2024-01-30T19:26:21.286Z,18.23
2024-01-30T19:28:50.335Z,18.38
2024-01-30T19:31:19.051Z,18.00
2024-01-30T19:33:46.899Z,19.67
2024-01-30T19:36:14.018Z,22.70
2024-01-30T19:38:40.989Z,35.47
2024-01-30T19:41:10.078Z,28.63
2024-01-30T19:43:36.965Z,44.88
2024-01-30T19:46:04.058Z,29.48
2024-01-30T19:48:30.943Z,25.83
2024-01-30T19:50:57.814Z,25.25
2024-01-30T19:53:24.762Z,37.90
2024-01-30T19:55:51.618Z,46.25
2024-01-30T19:58:18.555Z,53.65
2024-01-30T20:00:47.393Z,49.92
2024-01-30T20:03:14.288Z,40.60
2024-01-30T20:05:41.319Z,31.58
2024-01-30T20:08:08.307Z,26.30
2024-01-30T20:10:35.543Z,21.48
2024-01-30T20:13:02.468Z,23.77
2024-01-30T20:15:30.006Z,23.33
2024-01-30T20:17:57.038Z,20.05
2024-01-30T20:20:24.026Z,19.08
2024-01-30T20:22:50.981Z,17.77
2024-01-30T20:25:19.674Z,17.25
2024-01-30T20:27:48.332Z,16.17
2024-01-30T20:30:15.821Z,17.05
2024-01-30T20:32:42.788Z,15.43
2024-01-30T20:35:10.039Z,16.08
2024-01-30T20:37:39.408Z,16.05
2024-01-30T20:40:07.382Z,19.35
2024-01-30T20:42:35.015Z,17.70
2024-01-30T20:45:04.435Z,15.43
2024-01-30T20:47:31.740Z,15.70
2024-01-30T20:49:58.728Z,15.32
2024-01-30T20:52:25.692Z,17.48
2024-01-30T20:54:52.725Z,16.55
2024-01-30T20:57:19.610Z,15.07
2024-01-30T20:59:46.413Z,15.70
2024-01-30T21:02:13.362Z,15.70
2024-01-30T21:04:40.551Z,14.93
2024-01-30T21:07:08.218Z,14.45
2024-01-30T21:09:35.164Z,14.63
2024-01-30T21:12:02.255Z,13.77
2024-01-30T21:14:29.250Z,15.40
2024-01-30T21:16:57.402Z,14.43
2024-01-30T21:19:24.367Z,13.93
2024-01-30T21:21:51.344Z,14.32
2024-01-30T21:24:18.430Z,13.65
2024-01-30T21:26:45.616Z,13.90
2024-01-30T21:29:12.407Z,13.95
2024-01-30T21:31:40.013Z,12.55
2024-01-30T21:34:06.997Z,12.18
2024-01-30T21:36:33.803Z,12.30
2024-01-30T21:39:00.844Z,12.13
2024-01-30T21:41:27.714Z,12.68
2024-01-30T21:43:54.631Z,13.27
2024-01-30T21:46:28.940Z,11.30
2024-01-30T21:48:55.925Z,12.82
2024-01-30T21:51:22.820Z,12.70
2024-01-30T21:53:49.660Z,13.27
2024-01-30T21:56:16.586Z,15.05
2024-01-30T21:58:44.227Z,14.00
2024-01-30T22:01:11.340Z,13.50
2024-01-30T22:03:40.061Z,12.48
2024-01-30T22:06:07.182Z,13.93
2024-01-30T22:08:34.012Z,13.50
2024-01-30T22:11:01.277Z,11.77
2024-01-30T22:13:28.180Z,12.82
2024-01-30T22:15:55.111Z,13.55
2024-01-30T22:18:22.166Z,13.27
2024-01-30T22:20:49.017Z,12.05
2024-01-30T22:23:15.970Z,11.82
2024-01-30T22:25:42.860Z,12.15
2024-01-30T22:28:09.873Z,12.50
2024-01-30T22:30:37.190Z,12.07
2024-01-30T22:33:04.418Z,12.18
2024-01-30T22:35:31.303Z,11.68
2024-01-30T22:37:58.336Z,11.65
2024-01-30T22:40:25.218Z,11.13
2024-01-30T22:42:52.193Z,10.40
2024-01-30T22:45:19.140Z,11.05
2024-01-30T22:47:46.014Z,10.32
2024-01-30T22:50:13.192Z,11.77
2024-01-30T22:52:40.198Z,12.77
2024-01-30T22:55:08.375Z,12.00
2024-01-30T22:57:35.262Z,12.60
2024-01-30T23:00:02.891Z,11.75
2024-01-30T23:02:29.955Z,12.50
2024-01-30T23:04:57.051Z,11.95
2024-01-30T23:07:24.050Z,12.32
2024-01-30T23:09:50.951Z,11.55
2024-01-30T23:12:17.811Z,10.48
2024-01-30T23:14:45.789Z,11.90
2024-01-30T23:17:12.936Z,13.15
2024-01-30T23:19:39.755Z,11.65
2024-01-30T23:22:07.080Z,10.98
2024-01-30T23:24:34.066Z,12.07
2024-01-30T23:27:01.077Z,11.48
2024-01-30T23:29:28.271Z,11.40
2024-01-30T23:31:55.122Z,9.98
2024-01-30T23:34:22.143Z,10.38
2024-01-30T23:36:52.256Z,11.02
2024-01-30T23:39:20.323Z,10.82
2024-01-30T23:41:47.171Z,10.57
2024-01-30T23:44:14.100Z,10.65
2024-01-30T23:46:41.142Z,11.75
2024-01-30T23:49:08.123Z,10.68
2024-01-30T23:51:35.040Z,11.30
2024-01-30T23:54:02.173Z,10.82
2024-01-30T23:56:29.017Z,9.20
2024-01-30T23:58:56.521Z,11.13
